Accueil
METAR-TAF:

METAR-TAF

Aéroports :

Port Angeles, Washington, États-Unis

latitude: 48-08-27N, longitude: 123-24-39W, altitude: 4 m

Observation

Le bulletin a été fait il y a 21 minutes, à 09:30 UTC
Vent 3 kt de sud/sud-est
Température 11°C
Humidité 100%
Pression 1009 hPa
Visibilité: 0.4 km
Ciel couvert à une hauteur de 300 ft
brouillard

METAR: KNOW 220930Z AUTO 16003KT 1/4SM FG OVC003 11/11 A2979 RMK AO2 T01110111

Heure: 02:51 (09:51 UTC)


TAF: absent

Observations et prévisions météorologiques de plus de 4000 aéroports (messages METAR et TAF).

Les stations disponibles sont représentées par des disques jaunes et rouges sur la carte.

Passer la souris dessus pour voir le nom de la station.

Cliquer dessus pour voir les observations et prévisions météorologiques.

Pour changer de carte: cliquez sur les boutons verts avec une croix noire pour zoomer, sur le bouton vert avec un tiret pour effectuer un zoom arrière, ou sur les flèches vertes pour les cartes adjacentes.


METAR-TAF: